sensor_id;sensor_type;location;lat;lon;timestamp;P1;durP1;ratioP1;P2;durP2;ratioP2
1376;SDS011;682;52.502;13.488;2024-01-15T00:01:31;12.32;;;9.13;;
1376;SDS011;682;52.502;13.488;2024-01-15T00:04:04;13.05;;;10.57;;
1376;SDS011;682;52.502;13.488;2024-01-15T00:06:31;10.45;;;8.73;;
1376;SDS011;682;52.502;13.488;2024-01-15T00:08:58;12.80;;;9.88;;
1376;SDS011;682;52.502;13.488;2024-01-15T00:11:26;12.15;;;9.82;;
1376;SDS011;682;52.502;13.488;2024-01-15T00:13:53;12.20;;;9.80;;
1376;SDS011;682;52.502;13.488;2024-01-15T00:16:22;10.77;;;9.02;;
1376;SDS011;682;52.502;13.488;2024-01-15T00:18:49;12.90;;;9.23;;
1376;SDS011;682;52.502;13.488;2024-01-15T00:21:25;13.50;;;10.52;;
1376;SDS011;682;52.502;13.488;2024-01-15T00:23:53;12.93;;;9.55;;
1376;SDS011;682;52.502;13.488;2024-01-15T00:26:20;10.18;;;8.63;;
1376;SDS011;682;52.502;13.488;2024-01-15T00:28:47;12.43;;;9.80;;
1376;SDS011;682;52.502;13.488;2024-01-15T00:31:15;12.23;;;8.90;;
1376;SDS011;682;52.502;13.488;2024-01-15T00:33:43;12.85;;;9.75;;
1376;SDS011;682;52.502;13.488;2024-01-15T00:36:10;10.85;;;8.70;;
1376;SDS011;682;52.502;13.488;2024-01-15T00:38:38;11.13;;;9.63;;
1376;SDS011;682;52.502;13.488;2024-01-15T00:41:05;11.57;;;9.90;;
1376;SDS011;682;52.502;13.488;2024-01-15T00:43:32;10.75;;;8.95;;
1376;SDS011;682;52.502;13.488;2024-01-15T00:46:01;11.50;;;9.13;;
1376;SDS011;682;52.502;13.488;2024-01-15T00:48:28;12.20;;;9.20;;
1376;SDS011;682;52.502;13.488;2024-01-15T00:50:55;11.25;;;9.18;;
1376;SDS011;682;52.502;13.488;2024-01-15T00:53:25;10.15;;;9.00;;
1376;SDS011;682;52.502;13.488;2024-01-15T00:55:54;11.52;;;8.88;;
1376;SDS011;682;52.502;13.488;2024-01-15T00:58:21;10.95;;;8.70;;
1376;SDS011;682;52.502;13.488;2024-01-15T01:00:48;12.88;;;9.63;;
1376;SDS011;682;52.502;13.488;2024-01-15T01:03:15;9.73;;;7.93;;
1376;SDS011;682;52.502;13.488;2024-01-15T01:05:42;11.50;;;8.65;;
1376;SDS011;682;52.502;13.488;2024-01-15T01:08:10;11.02;;;9.25;;
1376;SDS011;682;52.502;13.488;2024-01-15T01:10:37;12.77;;;9.55;;
1376;SDS011;682;52.502;13.488;2024-01-15T01:13:09;11.95;;;9.65;;
1376;SDS011;682;52.502;13.488;2024-01-15T01:15:36;11.48;;;10.23;;
1376;SDS011;682;52.502;13.488;2024-01-15T01:18:04;12.98;;;9.98;;
1376;SDS011;682;52.502;13.488;2024-01-15T01:20:31;12.82;;;9.95;;
1376;SDS011;682;52.502;13.488;2024-01-15T01:22:58;11.38;;;9.68;;
1376;SDS011;682;52.502;13.488;2024-01-15T01:25:25;12.43;;;9.10;;
1376;SDS011;682;52.502;13.488;2024-01-15T01:27:52;12.35;;;9.57;;
1376;SDS011;682;52.502;13.488;2024-01-15T01:30:20;13.95;;;11.48;;
1376;SDS011;682;52.502;13.488;2024-01-15T01:32:47;12.25;;;9.23;;
1376;SDS011;682;52.502;13.488;2024-01-15T01:35:14;10.43;;;8.93;;
1376;SDS011;682;52.502;13.488;2024-01-15T01:37:41;14.68;;;10.40;;
1376;SDS011;682;52.502;13.488;2024-01-15T01:40:09;12.25;;;9.23;;
1376;SDS011;682;52.502;13.488;2024-01-15T01:42:36;14.55;;;10.65;;
1376;SDS011;682;52.502;13.488;2024-01-15T01:45:03;13.70;;;10.50;;
1376;SDS011;682;52.502;13.488;2024-01-15T01:47:33;11.88;;;9.30;;
1376;SDS011;682;52.502;13.488;2024-01-15T01:50:01;11.30;;;9.30;;
1376;SDS011;682;52.502;13.488;2024-01-15T01:52:28;13.82;;;9.48;;
1376;SDS011;682;52.502;13.488;2024-01-15T01:54:55;12.10;;;9.27;;
1376;SDS011;682;52.502;13.488;2024-01-15T01:57:23;12.70;;;9.32;;
1376;SDS011;682;52.502;13.488;2024-01-15T01:59:50;11.82;;;8.90;;
1376;SDS011;682;52.502;13.488;2024-01-15T02:02:17;13.02;;;9.60;;
1376;SDS011;682;52.502;13.488;2024-01-15T02:04:48;11.95;;;10.13;;
1376;SDS011;682;52.502;13.488;2024-01-15T02:07:16;14.10;;;11.32;;
1376;SDS011;682;52.502;13.488;2024-01-15T02:09:44;14.57;;;11.60;;
1376;SDS011;682;52.502;13.488;2024-01-15T02:12:11;12.63;;;10.60;;
1376;SDS011;682;52.502;13.488;2024-01-15T02:14:39;15.57;;;10.65;;
1376;SDS011;682;52.502;13.488;2024-01-15T02:17:06;14.02;;;10.80;;
1376;SDS011;682;52.502;13.488;2024-01-15T02:19:33;16.38;;;10.75;;
1376;SDS011;682;52.502;13.488;2024-01-15T02:22:01;15.20;;;10.63;;
1376;SDS011;682;52.502;13.488;2024-01-15T02:24:30;15.32;;;10.65;;
1376;SDS011;682;52.502;13.488;2024-01-15T02:26:57;13.48;;;9.70;;
1376;SDS011;682;52.502;13.488;2024-01-15T02:29:24;11.68;;;8.90;;
1376;SDS011;682;52.502;13.488;2024-01-15T02:31:51;12.55;;;9.95;;
1376;SDS011;682;52.502;13.488;2024-01-15T02:34:18;12.82;;;9.45;;
1376;SDS011;682;52.502;13.488;2024-01-15T02:36:46;12.68;;;9.35;;
1376;SDS011;682;52.502;13.488;2024-01-15T02:39:13;12.57;;;8.57;;
1376;SDS011;682;52.502;13.488;2024-01-15T02:41:41;10.45;;;8.32;;
1376;SDS011;682;52.502;13.488;2024-01-15T02:44:08;11.25;;;8.75;;
1376;SDS011;682;52.502;13.488;2024-01-15T02:46:35;15.05;;;8.48;;
1376;SDS011;682;52.502;13.488;2024-01-15T02:49:02;10.30;;;7.75;;
1376;SDS011;682;52.502;13.488;2024-01-15T02:51:31;10.45;;;7.75;;
1376;SDS011;682;52.502;13.488;2024-01-15T02:53:58;10.98;;;7.15;;
1376;SDS011;682;52.502;13.488;2024-01-15T02:56:25;11.68;;;7.55;;
1376;SDS011;682;52.502;13.488;2024-01-15T02:58:54;12.10;;;8.13;;
1376;SDS011;682;52.502;13.488;2024-01-15T03:01:22;9.60;;;7.97;;
1376;SDS011;682;52.502;13.488;2024-01-15T03:03:48;11.15;;;9.23;;
1376;SDS011;682;52.502;13.488;2024-01-15T03:06:15;11.15;;;7.80;;
1376;SDS011;682;52.502;13.488;2024-01-15T03:08:42;10.70;;;7.90;;
1376;SDS011;682;52.502;13.488;2024-01-15T03:11:09;12.50;;;8.20;;
1376;SDS011;682;52.502;13.488;2024-01-15T03:13:36;14.90;;;7.55;;
1376;SDS011;682;52.502;13.488;2024-01-15T03:16:05;10.60;;;9.50;;
1376;SDS011;682;52.502;13.488;2024-01-15T03:18:32;12.65;;;8.38;;
1376;SDS011;682;52.502;13.488;2024-01-15T03:20:59;9.52;;;7.53;;
1376;SDS011;682;52.502;13.488;2024-01-15T03:23:27;8.38;;;7.43;;
1376;SDS011;682;52.502;13.488;2024-01-15T03:25:56;9.27;;;6.82;;
1376;SDS011;682;52.502;13.488;2024-01-15T03:28:23;10.00;;;6.90;;
1376;SDS011;682;52.502;13.488;2024-01-15T03:30:51;8.02;;;6.70;;
1376;SDS011;682;52.502;13.488;2024-01-15T03:33:19;9.63;;;7.70;;
1376;SDS011;682;52.502;13.488;2024-01-15T03:35:46;12.38;;;7.90;;
1376;SDS011;682;52.502;13.488;2024-01-15T03:38:13;9.65;;;7.32;;
1376;SDS011;682;52.502;13.488;2024-01-15T03:40:40;11.93;;;8.05;;
1376;SDS011;682;52.502;13.488;2024-01-15T03:43:07;8.63;;;6.70;;
1376;SDS011;682;52.502;13.488;2024-01-15T03:45:35;9.73;;;6.78;;
1376;SDS011;682;52.502;13.488;2024-01-15T03:48:02;8.30;;;6.45;;
1376;SDS011;682;52.502;13.488;2024-01-15T03:50:32;9.43;;;6.15;;
1376;SDS011;682;52.502;13.488;2024-01-15T03:52:59;11.55;;;7.38;;
1376;SDS011;682;52.502;13.488;2024-01-15T03:55:26;9.27;;;6.60;;
1376;SDS011;682;52.502;13.488;2024-01-15T03:57:53;9.73;;;6.75;;
1376;SDS011;682;52.502;13.488;2024-01-15T04:00:20;8.85;;;6.90;;
1376;SDS011;682;52.502;13.488;2024-01-15T04:02:47;10.00;;;5.88;;
1376;SDS011;682;52.502;13.488;2024-01-15T04:05:15;13.25;;;6.72;;
1376;SDS011;682;52.502;13.488;2024-01-15T04:07:44;10.40;;;5.88;;
1376;SDS011;682;52.502;13.488;2024-01-15T04:10:11;8.20;;;6.45;;
1376;SDS011;682;52.502;13.488;2024-01-15T04:12:39;10.85;;;6.07;;
1376;SDS011;682;52.502;13.488;2024-01-15T04:15:07;9.73;;;6.40;;
1376;SDS011;682;52.502;13.488;2024-01-15T04:17:34;7.60;;;5.88;;
1376;SDS011;682;52.502;13.488;2024-01-15T04:20:01;9.77;;;6.32;;
1376;SDS011;682;52.502;13.488;2024-01-15T04:22:30;7.55;;;4.82;;
1376;SDS011;682;52.502;13.488;2024-01-15T04:24:59;8.55;;;5.05;;
1376;SDS011;682;52.502;13.488;2024-01-15T04:27:26;6.45;;;5.35;;
1376;SDS011;682;52.502;13.488;2024-01-15T04:29:56;12.48;;;5.40;;
1376;SDS011;682;52.502;13.488;2024-01-15T04:32:23;7.88;;;5.95;;
1376;SDS011;682;52.502;13.488;2024-01-15T04:34:50;5.85;;;4.95;;
1376;SDS011;682;52.502;13.488;2024-01-15T04:37:17;13.55;;;5.03;;
1376;SDS011;682;52.502;13.488;2024-01-15T04:39:44;7.72;;;5.25;;
1376;SDS011;682;52.502;13.488;2024-01-15T04:42:13;6.28;;;4.10;;
1376;SDS011;682;52.502;13.488;2024-01-15T04:44:40;8.70;;;4.55;;
1376;SDS011;682;52.502;13.488;2024-01-15T04:47:07;8.27;;;4.78;;
1376;SDS011;682;52.502;13.488;2024-01-15T04:49:33;7.55;;;3.80;;
1376;SDS011;682;52.502;13.488;2024-01-15T04:52:00;7.60;;;5.53;;
1376;SDS011;682;52.502;13.488;2024-01-15T04:54:27;6.88;;;4.28;;
1376;SDS011;682;52.502;13.488;2024-01-15T04:56:54;6.30;;;4.20;;
1376;SDS011;682;52.502;13.488;2024-01-15T04:59:23;6.30;;;4.03;;
1376;SDS011;682;52.502;13.488;2024-01-15T05:01:50;8.25;;;4.30;;
1376;SDS011;682;52.502;13.488;2024-01-15T05:04:18;6.13;;;3.58;;
1376;SDS011;682;52.502;13.488;2024-01-15T05:06:45;4.05;;;3.45;;
1376;SDS011;682;52.502;13.488;2024-01-15T05:09:12;5.63;;;3.80;;
1376;SDS011;682;52.502;13.488;2024-01-15T05:11:39;6.18;;;4.18;;
1376;SDS011;682;52.502;13.488;2024-01-15T05:14:06;4.63;;;2.75;;
1376;SDS011;682;52.502;13.488;2024-01-15T05:16:35;6.15;;;4.35;;
1376;SDS011;682;52.502;13.488;2024-01-15T05:19:07;5.65;;;3.22;;
1376;SDS011;682;52.502;13.488;2024-01-15T05:21:34;5.90;;;3.88;;
1376;SDS011;682;52.502;13.488;2024-01-15T05:24:01;5.57;;;3.55;;
1376;SDS011;682;52.502;13.488;2024-01-15T05:26:29;5.03;;;3.35;;
1376;SDS011;682;52.502;13.488;2024-01-15T05:28:56;5.30;;;3.00;;
1376;SDS011;682;52.502;13.488;2024-01-15T05:31:23;5.60;;;3.15;;
1376;SDS011;682;52.502;13.488;2024-01-15T05:33:51;5.40;;;3.30;;
1376;SDS011;682;52.502;13.488;2024-01-15T05:36:20;4.03;;;3.20;;
1376;SDS011;682;52.502;13.488;2024-01-15T05:38:48;6.22;;;2.97;;
1376;SDS011;682;52.502;13.488;2024-01-15T05:41:15;3.53;;;3.08;;
1376;SDS011;682;52.502;13.488;2024-01-15T05:43:42;10.05;;;3.72;;
1376;SDS011;682;52.502;13.488;2024-01-15T05:46:09;5.15;;;3.10;;
1376;SDS011;682;52.502;13.488;2024-01-15T05:48:36;8.57;;;3.60;;
1376;SDS011;682;52.502;13.488;2024-01-15T05:51:05;5.25;;;2.97;;
1376;SDS011;682;52.502;13.488;2024-01-15T05:53:32;6.60;;;3.47;;
1376;SDS011;682;52.502;13.488;2024-01-15T05:55:59;7.43;;;3.25;;
1376;SDS011;682;52.502;13.488;2024-01-15T05:58:26;10.05;;;6.00;;
1376;SDS011;682;52.502;13.488;2024-01-15T06:00:53;7.07;;;3.00;;
1376;SDS011;682;52.502;13.488;2024-01-15T06:03:21;3.45;;;2.60;;
1376;SDS011;682;52.502;13.488;2024-01-15T06:05:48;6.30;;;2.60;;
1376;SDS011;682;52.502;13.488;2024-01-15T06:08:17;6.38;;;3.35;;
1376;SDS011;682;52.502;13.488;2024-01-15T06:10:46;5.57;;;2.78;;
1376;SDS011;682;52.502;13.488;2024-01-15T06:13:13;9.18;;;3.55;;
1376;SDS011;682;52.502;13.488;2024-01-15T06:15:41;5.25;;;3.33;;
1376;SDS011;682;52.502;13.488;2024-01-15T06:18:09;5.85;;;2.90;;
1376;SDS011;682;52.502;13.488;2024-01-15T06:20:36;6.32;;;3.55;;
1376;SDS011;682;52.502;13.488;2024-01-15T06:23:04;5.28;;;2.55;;
1376;SDS011;682;52.502;13.488;2024-01-15T06:25:36;5.43;;;2.80;;
1376;SDS011;682;52.502;13.488;2024-01-15T06:28:03;6.50;;;3.53;;
1376;SDS011;682;52.502;13.488;2024-01-15T06:30:30;6.00;;;3.15;;
1376;SDS011;682;52.502;13.488;2024-01-15T06:32:57;5.07;;;2.78;;
1376;SDS011;682;52.502;13.488;2024-01-15T06:35:24;4.88;;;2.60;;
1376;SDS011;682;52.502;13.488;2024-01-15T06:37:51;5.43;;;2.80;;
1376;SDS011;682;52.502;13.488;2024-01-15T06:40:18;3.90;;;2.33;;
1376;SDS011;682;52.502;13.488;2024-01-15T06:42:47;6.93;;;3.03;;
1376;SDS011;682;52.502;13.488;2024-01-15T06:45:14;4.47;;;2.40;;
1376;SDS011;682;52.502;13.488;2024-01-15T06:47:42;6.35;;;2.50;;
1376;SDS011;682;52.502;13.488;2024-01-15T06:50:09;7.53;;;2.97;;
1376;SDS011;682;52.502;13.488;2024-01-15T06:52:36;5.88;;;2.45;;
1376;SDS011;682;52.502;13.488;2024-01-15T06:55:04;6.80;;;2.60;;
1376;SDS011;682;52.502;13.488;2024-01-15T06:57:32;6.13;;;3.42;;
1376;SDS011;682;52.502;13.488;2024-01-15T07:00:00;9.73;;;2.63;;
1376;SDS011;682;52.502;13.488;2024-01-15T07:02:32;9.48;;;3.58;;
1376;SDS011;682;52.502;13.488;2024-01-15T07:05:01;5.15;;;2.05;;
1376;SDS011;682;52.502;13.488;2024-01-15T07:07:30;5.13;;;1.92;;
1376;SDS011;682;52.502;13.488;2024-01-15T07:09:57;6.00;;;2.00;;
1376;SDS011;682;52.502;13.488;2024-01-15T07:12:25;7.03;;;2.50;;
1376;SDS011;682;52.502;13.488;2024-01-15T07:14:53;7.82;;;2.70;;
1376;SDS011;682;52.502;13.488;2024-01-15T07:17:23;3.17;;;2.00;;
1376;SDS011;682;52.502;13.488;2024-01-15T07:19:50;7.45;;;2.05;;
1376;SDS011;682;52.502;13.488;2024-01-15T07:22:22;10.35;;;2.80;;
1376;SDS011;682;52.502;13.488;2024-01-15T07:24:49;7.80;;;2.15;;
1376;SDS011;682;52.502;13.488;2024-01-15T07:27:19;5.03;;;2.40;;
1376;SDS011;682;52.502;13.488;2024-01-15T07:29:46;13.65;;;2.92;;
1376;SDS011;682;52.502;13.488;2024-01-15T07:32:16;6.00;;;2.55;;
1376;SDS011;682;52.502;13.488;2024-01-15T07:34:48;7.65;;;3.35;;
1376;SDS011;682;52.502;13.488;2024-01-15T07:37:15;5.45;;;2.45;;
1376;SDS011;682;52.502;13.488;2024-01-15T07:39:43;6.57;;;2.20;;
1376;SDS011;682;52.502;13.488;2024-01-15T07:42:10;4.35;;;2.50;;
1376;SDS011;682;52.502;13.488;2024-01-15T07:44:38;5.38;;;2.40;;
1376;SDS011;682;52.502;13.488;2024-01-15T07:47:05;6.80;;;3.15;;
1376;SDS011;682;52.502;13.488;2024-01-15T07:49:33;6.68;;;2.85;;
1376;SDS011;682;52.502;13.488;2024-01-15T07:52:02;5.80;;;2.92;;
1376;SDS011;682;52.502;13.488;2024-01-15T07:54:31;3.65;;;2.50;;
1376;SDS011;682;52.502;13.488;2024-01-15T07:57:00;7.38;;;3.15;;
1376;SDS011;682;52.502;13.488;2024-01-15T07:59:30;4.13;;;2.22;;
1376;SDS011;682;52.502;13.488;2024-01-15T08:01:58;4.60;;;2.00;;
1376;SDS011;682;52.502;13.488;2024-01-15T08:04:25;5.60;;;2.58;;
1376;SDS011;682;52.502;13.488;2024-01-15T08:06:53;7.80;;;2.63;;
1376;SDS011;682;52.502;13.488;2024-01-15T08:09:21;8.63;;;3.17;;
1376;SDS011;682;52.502;13.488;2024-01-15T08:11:49;5.68;;;2.17;;
1376;SDS011;682;52.502;13.488;2024-01-15T08:14:17;7.10;;;3.45;;
1376;SDS011;682;52.502;13.488;2024-01-15T08:16:44;9.98;;;2.45;;
1376;SDS011;682;52.502;13.488;2024-01-15T08:19:12;5.97;;;2.88;;
1376;SDS011;682;52.502;13.488;2024-01-15T08:21:39;7.63;;;2.38;;
1376;SDS011;682;52.502;13.488;2024-01-15T08:24:06;8.90;;;3.25;;
1376;SDS011;682;52.502;13.488;2024-01-15T08:26:36;5.53;;;2.35;;
1376;SDS011;682;52.502;13.488;2024-01-15T08:29:02;5.25;;;2.25;;
1376;SDS011;682;52.502;13.488;2024-01-15T08:31:30;8.05;;;2.72;;
1376;SDS011;682;52.502;13.488;2024-01-15T08:33:57;5.93;;;2.50;;
1376;SDS011;682;52.502;13.488;2024-01-15T08:36:24;4.43;;;2.20;;
1376;SDS011;682;52.502;13.488;2024-01-15T08:38:51;5.97;;;2.25;;
1376;SDS011;682;52.502;13.488;2024-01-15T08:41:20;6.25;;;2.30;;
1376;SDS011;682;52.502;13.488;2024-01-15T08:43:50;5.32;;;2.83;;
1376;SDS011;682;52.502;13.488;2024-01-15T08:46:18;7.18;;;2.50;;
1376;SDS011;682;52.502;13.488;2024-01-15T08:48:45;5.53;;;2.35;;
1376;SDS011;682;52.502;13.488;2024-01-15T08:51:12;10.60;;;3.90;;
1376;SDS011;682;52.502;13.488;2024-01-15T08:53:39;4.82;;;2.00;;
1376;SDS011;682;52.502;13.488;2024-01-15T08:56:06;5.30;;;2.58;;
1376;SDS011;682;52.502;13.488;2024-01-15T08:58:33;4.68;;;2.10;;
1376;SDS011;682;52.502;13.488;2024-01-15T09:01:02;5.03;;;2.40;;
1376;SDS011;682;52.502;13.488;2024-01-15T09:03:29;8.27;;;2.38;;
1376;SDS011;682;52.502;13.488;2024-01-15T09:05:57;5.53;;;2.20;;
1376;SDS011;682;52.502;13.488;2024-01-15T09:08:24;5.47;;;2.63;;
1376;SDS011;682;52.502;13.488;2024-01-15T09:10:52;5.95;;;2.70;;
1376;SDS011;682;52.502;13.488;2024-01-15T09:13:19;6.50;;;2.75;;
1376;SDS011;682;52.502;13.488;2024-01-15T09:15:46;5.70;;;2.47;;
1376;SDS011;682;52.502;13.488;2024-01-15T09:18:14;5.05;;;2.33;;
1376;SDS011;682;52.502;13.488;2024-01-15T09:20:41;4.45;;;2.08;;
1376;SDS011;682;52.502;13.488;2024-01-15T09:23:09;5.60;;;2.30;;
1376;SDS011;682;52.502;13.488;2024-01-15T09:25:37;7.72;;;2.38;;
1376;SDS011;682;52.502;13.488;2024-01-15T09:28:04;6.65;;;2.80;;
1376;SDS011;682;52.502;13.488;2024-01-15T09:30:33;5.65;;;2.65;;
1376;SDS011;682;52.502;13.488;2024-01-15T09:33:00;6.03;;;3.00;;
1376;SDS011;682;52.502;13.488;2024-01-15T09:35:28;4.68;;;2.42;;
1376;SDS011;682;52.502;13.488;2024-01-15T09:37:55;6.43;;;2.30;;
1376;SDS011;682;52.502;13.488;2024-01-15T09:40:22;6.60;;;2.35;;
1376;SDS011;682;52.502;13.488;2024-01-15T09:42:51;6.78;;;2.40;;
1376;SDS011;682;52.502;13.488;2024-01-15T09:45:20;6.20;;;2.92;;
1376;SDS011;682;52.502;13.488;2024-01-15T09:47:47;5.22;;;2.30;;
1376;SDS011;682;52.502;13.488;2024-01-15T09:50:14;3.88;;;2.10;;
1376;SDS011;682;52.502;13.488;2024-01-15T09:52:43;6.28;;;2.30;;
1376;SDS011;682;52.502;13.488;2024-01-15T09:55:10;6.82;;;2.70;;
1376;SDS011;682;52.502;13.488;2024-01-15T09:57:38;5.60;;;2.40;;
1376;SDS011;682;52.502;13.488;2024-01-15T10:00:06;3.83;;;1.63;;
1376;SDS011;682;52.502;13.488;2024-01-15T10:02:36;5.53;;;1.80;;
1376;SDS011;682;52.502;13.488;2024-01-15T10:05:03;5.97;;;2.42;;
1376;SDS011;682;52.502;13.488;2024-01-15T10:07:31;5.78;;;2.00;;
1376;SDS011;682;52.502;13.488;2024-01-15T10:10:05;5.13;;;2.45;;
1376;SDS011;682;52.502;13.488;2024-01-15T10:12:33;4.45;;;2.80;;
1376;SDS011;682;52.502;13.488;2024-01-15T10:15:01;5.07;;;2.33;;
1376;SDS011;682;52.502;13.488;2024-01-15T10:17:29;5.43;;;2.20;;
1376;SDS011;682;52.502;13.488;2024-01-15T10:20:00;9.88;;;2.83;;
1376;SDS011;682;52.502;13.488;2024-01-15T10:22:29;8.02;;;1.77;;
1376;SDS011;682;52.502;13.488;2024-01-15T10:24:56;4.80;;;2.10;;
1376;SDS011;682;52.502;13.488;2024-01-15T10:27:26;3.78;;;2.63;;
1376;SDS011;682;52.502;13.488;2024-01-15T10:29:55;3.28;;;2.45;;
1376;SDS011;682;52.502;13.488;2024-01-15T10:32:27;3.35;;;2.25;;
1376;SDS011;682;52.502;13.488;2024-01-15T10:34:55;2.83;;;1.70;;
1376;SDS011;682;52.502;13.488;2024-01-15T10:37:23;4.32;;;1.63;;
1376;SDS011;682;52.502;13.488;2024-01-15T10:39:52;6.28;;;2.33;;
1376;SDS011;682;52.502;13.488;2024-01-15T10:42:19;4.18;;;2.00;;
1376;SDS011;682;52.502;13.488;2024-01-15T10:44:50;2.80;;;2.00;;
1376;SDS011;682;52.502;13.488;2024-01-15T10:47:17;5.53;;;2.40;;
1376;SDS011;682;52.502;13.488;2024-01-15T10:49:46;3.75;;;2.20;;
1376;SDS011;682;52.502;13.488;2024-01-15T10:52:13;3.38;;;2.55;;
1376;SDS011;682;52.502;13.488;2024-01-15T10:54:42;5.32;;;2.67;;
1376;SDS011;682;52.502;13.488;2024-01-15T10:57:10;3.50;;;1.60;;
1376;SDS011;682;52.502;13.488;2024-01-15T10:59:39;4.13;;;2.67;;
1376;SDS011;682;52.502;13.488;2024-01-15T11:02:08;3.95;;;2.22;;
1376;SDS011;682;52.502;13.488;2024-01-15T11:04:35;3.42;;;2.03;;
1376;SDS011;682;52.502;13.488;2024-01-15T11:07:03;5.00;;;1.60;;
1376;SDS011;682;52.502;13.488;2024-01-15T11:09:32;2.83;;;1.60;;
1376;SDS011;682;52.502;13.488;2024-01-15T11:12:09;2.97;;;2.22;;
1376;SDS011;682;52.502;13.488;2024-01-15T11:14:40;2.78;;;1.60;;
1376;SDS011;682;52.502;13.488;2024-01-15T11:17:10;5.38;;;1.67;;
1376;SDS011;682;52.502;13.488;2024-01-15T11:19:38;2.72;;;1.60;;
1376;SDS011;682;52.502;13.488;2024-01-15T11:22:09;2.30;;;1.50;;
1376;SDS011;682;52.502;13.488;2024-01-15T11:24:37;5.03;;;2.17;;
1376;SDS011;682;52.502;13.488;2024-01-15T11:27:05;2.65;;;1.20;;
1376;SDS011;682;52.502;13.488;2024-01-15T11:29:33;3.03;;;1.55;;
1376;SDS011;682;52.502;13.488;2024-01-15T11:32:04;2.80;;;1.25;;
1376;SDS011;682;52.502;13.488;2024-01-15T11:34:52;1.52;;;1.20;;
1376;SDS011;682;52.502;13.488;2024-01-15T11:37:23;2.45;;;1.50;;
1376;SDS011;682;52.502;13.488;2024-01-15T11:39:53;2.40;;;1.17;;
1376;SDS011;682;52.502;13.488;2024-01-15T11:42:21;6.20;;;2.88;;
1376;SDS011;682;52.502;13.488;2024-01-15T11:44:49;3.25;;;1.70;;
1376;SDS011;682;52.502;13.488;2024-01-15T11:47:16;3.33;;;2.40;;
1376;SDS011;682;52.502;13.488;2024-01-15T11:50:10;3.55;;;1.90;;
1376;SDS011;682;52.502;13.488;2024-01-15T11:52:37;3.47;;;1.60;;
1376;SDS011;682;52.502;13.488;2024-01-15T11:55:10;1.85;;;1.40;;
1376;SDS011;682;52.502;13.488;2024-01-15T11:57:41;2.42;;;1.80;;
1376;SDS011;682;52.502;13.488;2024-01-15T12:00:11;5.38;;;2.10;;
1376;SDS011;682;52.502;13.488;2024-01-15T12:02:40;3.85;;;2.42;;
1376;SDS011;682;52.502;13.488;2024-01-15T12:05:07;2.97;;;1.70;;
1376;SDS011;682;52.502;13.488;2024-01-15T12:07:37;3.17;;;2.17;;
1376;SDS011;682;52.502;13.488;2024-01-15T12:10:10;3.25;;;1.92;;
1376;SDS011;682;52.502;13.488;2024-01-15T12:12:47;3.60;;;2.15;;
1376;SDS011;682;52.502;13.488;2024-01-15T12:15:21;2.00;;;1.80;;
1376;SDS011;682;52.502;13.488;2024-01-15T12:17:50;4.38;;;1.95;;
1376;SDS011;682;52.502;13.488;2024-01-15T12:20:21;2.20;;;1.73;;
1376;SDS011;682;52.502;13.488;2024-01-15T12:22:49;3.45;;;1.80;;
1376;SDS011;682;52.502;13.488;2024-01-15T12:25:16;3.70;;;2.10;;
1376;SDS011;682;52.502;13.488;2024-01-15T12:27:43;4.68;;;2.22;;
1376;SDS011;682;52.502;13.488;2024-01-15T12:30:11;3.00;;;2.35;;
1376;SDS011;682;52.502;13.488;2024-01-15T12:32:40;2.88;;;1.90;;
1376;SDS011;682;52.502;13.488;2024-01-15T12:35:08;3.03;;;2.22;;
1376;SDS011;682;52.502;13.488;2024-01-15T12:37:38;2.10;;;1.90;;
1376;SDS011;682;52.502;13.488;2024-01-15T12:40:06;2.97;;;2.03;;
1376;SDS011;682;52.502;13.488;2024-01-15T12:42:34;4.80;;;2.53;;
1376;SDS011;682;52.502;13.488;2024-01-15T12:45:02;4.15;;;2.47;;
1376;SDS011;682;52.502;13.488;2024-01-15T12:47:31;3.53;;;1.48;;
1376;SDS011;682;52.502;13.488;2024-01-15T12:49:59;2.80;;;2.40;;
1376;SDS011;682;52.502;13.488;2024-01-15T12:52:26;2.40;;;1.73;;
1376;SDS011;682;52.502;13.488;2024-01-15T12:54:55;3.00;;;1.80;;
1376;SDS011;682;52.502;13.488;2024-01-15T12:57:22;7.20;;;2.42;;
1376;SDS011;682;52.502;13.488;2024-01-15T12:59:49;4.30;;;2.17;;
1376;SDS011;682;52.502;13.488;2024-01-15T13:02:17;2.70;;;2.15;;
1376;SDS011;682;52.502;13.488;2024-01-15T13:04:44;5.35;;;1.70;;
1376;SDS011;682;52.502;13.488;2024-01-15T13:07:11;2.13;;;1.48;;
1376;SDS011;682;52.502;13.488;2024-01-15T13:09:39;4.07;;;2.17;;
1376;SDS011;682;52.502;13.488;2024-01-15T13:12:08;5.68;;;2.10;;
1376;SDS011;682;52.502;13.488;2024-01-15T13:14:36;2.63;;;2.10;;
1376;SDS011;682;52.502;13.488;2024-01-15T13:17:04;3.00;;;1.92;;
1376;SDS011;682;52.502;13.488;2024-01-15T13:19:32;2.50;;;1.55;;
1376;SDS011;682;52.502;13.488;2024-01-15T13:21:59;2.70;;;2.30;;
1376;SDS011;682;52.502;13.488;2024-01-15T13:24:28;1.70;;;1.60;;
1376;SDS011;682;52.502;13.488;2024-01-15T13:26:56;4.85;;;2.00;;
1376;SDS011;682;52.502;13.488;2024-01-15T13:29:24;2.35;;;1.75;;
1376;SDS011;682;52.502;13.488;2024-01-15T13:31:51;2.67;;;1.85;;
1376;SDS011;682;52.502;13.488;2024-01-15T13:34:18;1.70;;;1.40;;
1376;SDS011;682;52.502;13.488;2024-01-15T13:36:45;4.60;;;1.80;;
1376;SDS011;682;52.502;13.488;2024-01-15T13:39:12;1.85;;;1.52;;
1376;SDS011;682;52.502;13.488;2024-01-15T13:41:39;2.58;;;1.50;;
1376;SDS011;682;52.502;13.488;2024-01-15T13:44:06;2.10;;;1.50;;
1376;SDS011;682;52.502;13.488;2024-01-15T13:46:37;2.35;;;1.27;;
1376;SDS011;682;52.502;13.488;2024-01-15T13:49:04;3.67;;;2.10;;
1376;SDS011;682;52.502;13.488;2024-01-15T13:51:31;2.38;;;1.80;;
1376;SDS011;682;52.502;13.488;2024-01-15T13:53:59;5.05;;;2.30;;
1376;SDS011;682;52.502;13.488;2024-01-15T13:56:29;4.10;;;1.90;;
1376;SDS011;682;52.502;13.488;2024-01-15T13:58:57;2.10;;;1.55;;
1376;SDS011;682;52.502;13.488;2024-01-15T14:01:24;3.38;;;1.90;;
1376;SDS011;682;52.502;13.488;2024-01-15T14:03:54;3.22;;;1.83;;
1376;SDS011;682;52.502;13.488;2024-01-15T14:06:21;1.95;;;1.75;;
1376;SDS011;682;52.502;13.488;2024-01-15T14:08:49;2.00;;;1.42;;
1376;SDS011;682;52.502;13.488;2024-01-15T14:11:16;2.35;;;1.70;;
1376;SDS011;682;52.502;13.488;2024-01-15T14:13:43;2.80;;;1.58;;
1376;SDS011;682;52.502;13.488;2024-01-15T14:16:10;2.30;;;2.05;;
1376;SDS011;682;52.502;13.488;2024-01-15T14:18:37;3.75;;;1.92;;
1376;SDS011;682;52.502;13.488;2024-01-15T14:21:07;2.35;;;1.80;;
1376;SDS011;682;52.502;13.488;2024-01-15T14:23:35;4.78;;;1.95;;
1376;SDS011;682;52.502;13.488;2024-01-15T14:26:02;5.05;;;1.63;;
1376;SDS011;682;52.502;13.488;2024-01-15T14:28:29;2.25;;;1.75;;
1376;SDS011;682;52.502;13.488;2024-01-15T14:30:56;2.40;;;1.63;;
1376;SDS011;682;52.502;13.488;2024-01-15T14:33:25;8.07;;;2.90;;
1376;SDS011;682;52.502;13.488;2024-01-15T14:35:52;4.18;;;2.10;;
1376;SDS011;682;52.502;13.488;2024-01-15T14:38:21;6.35;;;1.92;;
1376;SDS011;682;52.502;13.488;2024-01-15T14:40:48;4.95;;;2.03;;
1376;SDS011;682;52.502;13.488;2024-01-15T14:43:16;5.90;;;3.67;;
1376;SDS011;682;52.502;13.488;2024-01-15T14:45:42;3.65;;;1.60;;
1376;SDS011;682;52.502;13.488;2024-01-15T14:48:10;4.55;;;2.10;;
1376;SDS011;682;52.502;13.488;2024-01-15T14:50:38;2.83;;;1.70;;
1376;SDS011;682;52.502;13.488;2024-01-15T14:53:05;5.15;;;2.50;;
1376;SDS011;682;52.502;13.488;2024-01-15T14:55:35;16.98;;;11.93;;
1376;SDS011;682;52.502;13.488;2024-01-15T14:58:02;2.03;;;1.83;;
1376;SDS011;682;52.502;13.488;2024-01-15T15:00:29;6.00;;;2.45;;
1376;SDS011;682;52.502;13.488;2024-01-15T15:02:57;3.42;;;2.30;;
1376;SDS011;682;52.502;13.488;2024-01-15T15:05:24;4.93;;;3.10;;
1376;SDS011;682;52.502;13.488;2024-01-15T15:07:51;4.25;;;2.35;;
1376;SDS011;682;52.502;13.488;2024-01-15T15:10:21;5.57;;;2.72;;
1376;SDS011;682;52.502;13.488;2024-01-15T15:12:49;4.22;;;1.80;;
1376;SDS011;682;52.502;13.488;2024-01-15T15:15:16;10.27;;;3.83;;